Time;durP1;ratioP1;P1;durP2;ratioP2;P2;SDS_P1;SDS_P2;PMS_P1;PMS_P2;Temp;Humidity;BMP_temperature;BMP_pressure;BME280_temperature;BME280_humidity;BME280_pressure;Samples;Min_cycle;Max_cycle;Signal;HPM_P1;HPM_P2
2022/03/08 00:00:39;;;;;;;;;;;;;;;-0.08;100.00;102446.47;5006664;28;19971;-71
2022/03/08 00:03:04;;;;;;;;;;;;;;;-0.12;100.00;102454.19;5025053;28;19949;-71
2022/03/08 00:05:30;;;;;;;;;;;;;;;-0.19;100.00;102452.28;5010706;28;19925;-71
2022/03/08 00:07:56;;;;;;;;;;;;;;;-0.20;100.00;102448.78;5007572;28;19940;-71
2022/03/08 00:10:21;;;;;;;;;;;;;;;-0.23;100.00;102445.19;5028463;28;19917;-71
2022/03/08 00:12:47;;;;;;;;;;;;;;;-0.22;100.00;102446.97;5005086;28;20317;-71
2022/03/08 00:15:16;;;;;;;;;;;;;;;-0.18;100.00;102441.88;5010092;28;20011;-71
2022/03/08 00:17:41;;;;;;;;;;;;;;;-0.21;100.00;102440.91;5026336;28;19989;-71
2022/03/08 00:20:08;;;;;;;;;;;;;;;-0.23;100.00;102435.63;5003074;28;19917;-71
2022/03/08 00:22:34;;;;;;;;;;;;;;;-0.20;100.00;102432.22;5009980;28;20332;-71
2022/03/08 00:25:01;;;;;;;;;;;;;;;-0.23;100.00;102427.81;5005248;28;20400;-71
2022/03/08 00:27:27;;;;;;;;;;;;;;;-0.29;100.00;102429.38;5012399;28;20008;-71
2022/03/08 00:29:52;;;;;;;;;;;;;;;-0.33;100.00;102420.56;5010571;28;19963;-71
2022/03/08 00:32:17;;;;;;;;;;;;;;;-0.40;100.00;102426.47;5012870;28;19922;-72
2022/03/08 00:34:42;;;;;;;;;;;;;;;-0.31;100.00;102428.44;5011760;28;19926;-71
2022/03/08 00:37:07;;;;;;;;;;;;;;;-0.33;100.00;102417.94;5018975;28;20409;-71
2022/03/08 00:39:33;;;;;;;;;;;;;;;-0.36;100.00;102425.72;5019031;28;20016;-71
2022/03/08 00:41:58;;;;;;;;;;;;;;;-0.44;100.00;102418.53;5018982;28;19964;-71
2022/03/08 00:44:23;;;;;;;;;;;;;;;-0.37;100.00;102417.84;5018921;28;19924;-71
2022/03/08 00:49:51;;;;;;;;;;;;;;;-0.37;100.00;102423.06;5036777;28;19920;-71
2022/03/08 00:52:18;;;;;;;;;;;;;;;-0.41;100.00;102413.41;5018793;28;19917;-71
2022/03/08 00:54:43;;;;;;;;;;;;;;;-0.37;100.00;102407.41;5019057;28;19921;-71
2022/03/08 00:57:08;;;;;;;;;;;;;;;-0.37;100.00;102415.22;5018956;28;19917;-71
2022/03/08 00:59:34;;;;;;;;;;;;;;;-0.33;100.00;102404.03;5018784;28;19987;-71
2022/03/08 01:01:59;;;;;;;;;;;;;;;-0.34;100.00;102410.09;5018968;28;19921;-70
2022/03/08 01:04:24;;;;;;;;;;;;;;;-0.18;100.00;102414.88;5018498;28;19917;-71
2022/03/08 01:06:49;;;;;;;;;;;;;;;-0.33;100.00;102402.28;5018160;28;20000;-71
2022/03/08 01:09:14;;;;;;;;;;;;;;;-0.44;100.00;102400.25;5018467;28;19917;-71
2022/03/08 01:11:41;;;;;;;;;;;;;;;-0.48;100.00;102401.91;5018449;28;20332;-71
2022/03/08 01:14:07;;;;;;;;;;;;;;;-0.45;100.00;102396.75;5018218;28;19917;-71
2022/03/08 01:16:33;;;;;;;;;;;;;;;-0.42;100.00;102402.06;5018378;28;20275;-71
2022/03/08 01:18:58;;;;;;;;;;;;;;;-0.51;100.00;102399.22;5036296;28;19917;-71
2022/03/08 01:21:24;;;;;;;;;;;;;;;-0.52;100.00;102401.78;5018299;28;19917;-71
2022/03/08 01:23:49;;;;;;;;;;;;;;;-0.44;100.00;102398.50;5018149;28;19964;-71
2022/03/08 01:26:14;;;;;;;;;;;;;;;-0.58;100.00;102391.16;5018124;28;19917;-71
2022/03/08 01:28:40;;;;;;;;;;;;;;;-0.63;100.00;102391.03;5018217;28;20338;-71
2022/03/08 01:31:06;;;;;;;;;;;;;;;-0.70;100.00;102393.44;5018085;28;19955;-71
2022/03/08 01:33:31;;;;;;;;;;;;;;;-0.72;100.00;102390.78;5035566;28;20370;-71
2022/03/08 01:35:56;;;;;;;;;;;;;;;-0.66;100.00;102390.94;5017909;28;20311;-71
2022/03/08 01:38:21;;;;;;;;;;;;;;;-0.71;100.00;102396.91;5035992;28;20290;-71
2022/03/08 01:40:46;;;;;;;;;;;;;;;-0.72;100.00;102397.72;5017841;28;20270;-71
2022/03/08 01:43:12;;;;;;;;;;;;;;;-0.78;100.00;102393.25;5035557;28;19917;-71
2022/03/08 01:45:37;;;;;;;;;;;;;;;-0.76;100.00;102386.34;5017792;28;19924;-71
2022/03/08 01:48:02;;;;;;;;;;;;;;;-0.74;100.00;102383.78;5017659;28;19928;-71
2022/03/08 01:50:27;;;;;;;;;;;;;;;-0.74;100.00;102383.78;5035369;28;19919;-71
2022/03/08 01:52:53;;;;;;;;;;;;;;;-0.74;100.00;102379.44;5035355;28;19932;-71
2022/03/08 01:55:19;;;;;;;;;;;;;;;-0.65;100.00;102379.69;5017576;28;20370;-71
2022/03/08 01:57:45;;;;;;;;;;;;;;;-0.63;100.00;102377.13;5017460;28;20354;-71
2022/03/08 02:00:12;;;;;;;;;;;;;;;-0.63;100.00;102377.13;5017385;28;19968;-71
2022/03/08 02:02:37;;;;;;;;;;;;;;;-0.64;100.00;102364.91;5035037;28;19999;-72
2022/03/08 02:05:03;;;;;;;;;;;;;;;-0.68;100.00;102353.50;5035208;28;20363;-72
2022/03/08 02:07:28;;;;;;;;;;;;;;;-0.64;100.00;102344.94;5017541;28;19921;-72
2022/03/08 02:09:53;;;;;;;;;;;;;;;-0.51;100.00;102346.13;5017450;28;19963;-71
2022/03/08 02:12:19;;;;;;;;;;;;;;;-0.53;100.00;102337.38;5017340;28;19924;-72
2022/03/08 02:14:44;;;;;;;;;;;;;;;-0.55;100.00;102339.94;5034925;28;20004;-71
2022/03/08 02:17:09;;;;;;;;;;;;;;;-0.62;100.00;102332.81;5017078;28;19921;-72
2022/03/08 02:19:35;;;;;;;;;;;;;;;-0.65;100.00;102334.47;5034219;28;20390;-71
2022/03/08 02:22:00;;;;;;;;;;;;;;;-0.65;100.00;102329.25;5034839;28;19917;-71
2022/03/08 02:24:25;;;;;;;;;;;;;;;-0.58;100.00;102325.94;5017074;28;19995;-71
2022/03/08 02:26:51;;;;;;;;;;;;;;;-0.57;100.00;102310.31;5017092;28;19952;-72
2022/03/08 02:29:16;;;;;;;;;;;;;;;-0.56;100.00;102314.72;5017059;28;20008;-72
2022/03/08 02:31:41;;;;;;;;;;;;;;;-0.57;100.00;102314.66;5016946;28;19944;-71
2022/03/08 02:34:06;;;;;;;;;;;;;;;-0.68;100.00;102313.50;5016986;28;20335;-71
2022/03/08 02:36:32;;;;;;;;;;;;;;;-0.68;100.00;102316.97;5017016;28;20453;-72
2022/03/08 02:38:57;;;;;;;;;;;;;;;-0.77;100.00;102316.75;5016809;28;19921;-71
2022/03/08 02:41:22;;;;;;;;;;;;;;;-0.80;100.00;102321.88;5034465;28;20337;-72
2022/03/08 02:43:48;;;;;;;;;;;;;;;-0.80;100.00;102306.22;5034469;28;19917;-72
2022/03/08 02:46:13;;;;;;;;;;;;;;;-0.80;100.00;102306.22;5016581;28;19943;-71
2022/03/08 02:48:38;;;;;;;;;;;;;;;-0.74;100.00;102300.31;5016559;28;19925;-72
2022/03/08 02:51:03;;;;;;;;;;;;;;;-0.75;100.00;102301.13;5016420;28;19917;-72
2022/03/08 02:53:29;;;;;;;;;;;;;;;-0.85;100.00;102297.41;5034250;28;19917;-72
2022/03/08 02:55:54;;;;;;;;;;;;;;;-0.91;100.00;102294.63;5016402;28;19968;-71
2022/03/08 02:58:19;;;;;;;;;;;;;;;-0.96;100.00;102283.19;5034332;28;20003;-72
2022/03/08 03:00:44;;;;;;;;;;;;;;;-0.92;100.00;102290.28;5016598;28;20015;-72
2022/03/08 03:03:10;;;;;;;;;;;;;;;-0.90;100.00;102283.34;5016493;28;19917;-71
2022/03/08 03:05:35;;;;;;;;;;;;;;;-0.94;100.00;102276.31;5034381;28;19921;-72
2022/03/08 03:08:01;;;;;;;;;;;;;;;-1.02;100.00;102285.66;5016441;28;20398;-72
2022/03/08 03:10:27;;;;;;;;;;;;;;;-1.10;100.00;102284.53;5034060;28;19928;-72
2022/03/08 03:12:53;;;;;;;;;;;;;;;-1.21;100.00;102283.38;5016332;28;19924;-71
2022/03/08 03:15:18;;;;;;;;;;;;;;;-1.24;100.00;102283.28;5016157;28;19954;-72
2022/03/08 03:17:44;;;;;;;;;;;;;;;-1.29;100.00;102279.66;5015939;28;19917;-72
2022/03/08 03:20:12;;;;;;;;;;;;;;;-1.31;100.00;102283.97;4997895;28;20358;-72
2022/03/08 03:22:37;;;;;;;;;;;;;;;-1.28;100.00;102275.34;4995796;28;19917;-72
2022/03/08 03:25:09;;;;;;;;;;;;;;;-1.35;100.00;102282.09;5013970;28;19921;-72
2022/03/08 03:27:35;;;;;;;;;;;;;;;-1.41;100.00;102281.94;4996484;28;20385;-71
2022/03/08 03:30:00;;;;;;;;;;;;;;;-1.35;100.00;102261.25;4996319;28;20009;-71
2022/03/08 03:46:10;;;;;;;;;;;;;;;-1.23;100.00;102253.75;5212879;23;20339;-73
2022/03/08 03:48:35;;;;;;;;;;;;;;;-1.23;100.00;102247.69;4975031;28;19922;-73
2022/03/08 03:51:00;;;;;;;;;;;;;;;-1.11;100.00;102259.34;4975113;28;19969;-74
2022/03/08 03:53:25;;;;;;;;;;;;;;;-1.22;100.00;102252.94;4957646;28;19918;-72
2022/03/08 03:55:51;;;;;;;;;;;;;;;-1.11;100.00;102256.72;4975311;28;19918;-73
2022/03/08 03:58:21;;;;;;;;;;;;;;;-1.18;100.00;102259.13;4957307;28;19918;-72
2022/03/08 04:00:46;;;;;;;;;;;;;;;-1.26;100.00;102252.81;4975434;28;19922;-72
2022/03/08 04:03:15;;;;;;;;;;;;;;;-1.23;100.00;102260.72;4975115;28;19942;-73
2022/03/08 04:05:40;;;;;;;;;;;;;;;-1.30;100.00;102254.47;4975418;28;20257;-73
2022/03/08 04:08:05;;;;;;;;;;;;;;;-1.21;100.00;102259.06;4974856;28;19925;-72
2022/03/08 04:10:31;;;;;;;;;;;;;;;-1.29;100.00;102264.03;4974714;28;19918;-72
2022/03/08 04:12:56;;;;;;;;;;;;;;;-1.12;100.00;102260.16;4974942;28;19918;-73
2022/03/08 04:15:21;;;;;;;;;;;;;;;-1.13;100.00;102255.78;4974648;28;19918;-73
2022/03/08 04:17:46;;;;;;;;;;;;;;;-1.29;100.00;102253.59;4975388;28;19925;-73
2022/03/08 04:20:12;;;;;;;;;;;;;;;-1.30;100.00;102244.03;4957321;28;19926;-73
2022/03/08 04:22:37;;;;;;;;;;;;;;;-1.36;100.00;102249.09;4974758;28;19918;-73
2022/03/08 04:25:03;;;;;;;;;;;;;;;-1.41;100.00;102250.66;4957498;28;19926;-73
2022/03/08 04:27:29;;;;;;;;;;;;;;;-1.41;100.00;102247.16;4957167;28;19923;-73
2022/03/08 04:29:54;;;;;;;;;;;;;;;-1.53;100.00;102239.03;4975051;28;19922;-73
2022/03/08 04:32:19;;;;;;;;;;;;;;;-1.51;100.00;102248.63;4974417;28;19918;-72
2022/03/08 04:34:44;;;;;;;;;;;;;;;-1.66;100.00;102243.00;4974385;28;19972;-73
2022/03/08 04:37:09;;;;;;;;;;;;;;;-1.64;100.00;102242.19;4967038;28;19953;-74
2022/03/08 04:39:35;;;;;;;;;;;;;;;-1.67;100.00;102243.84;4969961;28;19918;-73
2022/03/08 04:42:07;;;;;;;;;;;;;;;-1.72;100.00;102243.69;4965722;28;19918;-72
2022/03/08 04:44:32;;;;;;;;;;;;;;;-1.73;100.00;102243.66;4978024;28;19918;-73
2022/03/08 04:47:01;;;;;;;;;;;;;;;-1.75;100.00;102248.81;4969738;28;20035;-72
2022/03/08 04:49:26;;;;;;;;;;;;;;;-1.71;100.00;102242.88;4961816;28;19918;-73
2022/03/08 04:51:51;;;;;;;;;;;;;;;-1.77;100.00;102242.69;4941471;29;19925;-73
2022/03/08 04:54:17;;;;;;;;;;;;;;;-1.84;100.00;102237.25;4963445;28;20380;-73
2022/03/08 04:56:42;;;;;;;;;;;;;;;-1.82;100.00;102230.38;4973554;28;19926;-73
2022/03/08 04:59:07;;;;;;;;;;;;;;;-1.83;100.00;102228.63;4977968;28;19918;-73
2022/03/08 05:01:32;;;;;;;;;;;;;;;-1.89;100.00;102231.06;4971618;28;19922;-73
2022/03/08 05:03:58;;;;;;;;;;;;;;;-1.84;100.00;102226.84;4974392;28;19922;-73
2022/03/08 05:06:23;;;;;;;;;;;;;;;-1.68;100.00;102218.63;4969530;28;19918;-73
2022/03/08 05:08:48;;;;;;;;;;;;;;;-1.79;100.00;102226.16;4965709;28;19929;-73
2022/03/08 05:11:13;;;;;;;;;;;;;;;-1.75;100.00;102227.13;4970968;28;19919;-73
2022/03/08 05:13:39;;;;;;;;;;;;;;;-1.67;100.00;102228.22;4972435;28;20431;-73
2022/03/08 05:16:04;;;;;;;;;;;;;;;-1.62;100.00;102224.00;4974367;28;19919;-73
2022/03/08 05:18:30;;;;;;;;;;;;;;;-1.54;100.00;102230.31;4974244;28;19948;-73
2022/03/08 05:20:55;;;;;;;;;;;;;;;-1.47;100.00;102229.66;4971587;28;19922;-74
2022/03/08 05:23:20;;;;;;;;;;;;;;;-1.60;100.00;102224.94;4974198;28;19926;-73
2022/03/08 05:25:46;;;;;;;;;;;;;;;-1.62;100.00;102221.41;4971921;28;19976;-73
2022/03/08 05:28:11;;;;;;;;;;;;;;;-1.58;100.00;102221.53;4968193;28;20379;-73
2022/03/08 05:30:36;;;;;;;;;;;;;;;-1.65;100.00;102218.72;4953031;28;19922;-73
2022/03/08 05:33:01;;;;;;;;;;;;;;;-1.51;100.00;102221.72;4965275;28;19918;-73
2022/03/08 05:35:27;;;;;;;;;;;;;;;-1.47;100.00;102215.75;4967465;28;20010;-73
2022/03/08 05:37:52;;;;;;;;;;;;;;;-1.37;100.00;102220.38;4968223;28;19925;-73
2022/03/08 05:40:17;;;;;;;;;;;;;;;-1.42;100.00;102207.22;4970453;28;20295;-73
2022/03/08 05:42:49;;;;;;;;;;;;;;;-1.38;100.00;102202.97;4969559;28;19941;-73
2022/03/08 05:45:15;;;;;;;;;;;;;;;-1.36;100.00;102199.56;4967525;28;19922;-73
2022/03/08 05:47:49;;;;;;;;;;;;;;;-1.35;100.00;102201.31;4973138;28;19924;-73
2022/03/08 05:50:14;;;;;;;;;;;;;;;-1.44;100.00;102197.59;4953173;29;19962;-73
2022/03/08 05:52:40;;;;;;;;;;;;;;;-1.40;100.00;102189.88;4961384;28;19964;-74
2022/03/08 05:55:05;;;;;;;;;;;;;;;-1.36;100.00;102198.69;4975804;28;19989;-73
2022/03/08 05:57:31;;;;;;;;;;;;;;;-1.37;100.00;102189.97;4976850;28;19958;-73
2022/03/08 05:59:56;;;;;;;;;;;;;;;-1.34;100.00;102203.13;4973194;28;19925;-74
2022/03/08 06:02:21;;;;;;;;;;;;;;;-1.37;100.00;102184.75;4973543;28;19925;-73
2022/03/08 06:04:46;;;;;;;;;;;;;;;-1.36;100.00;102190.88;4976467;28;19922;-74
2022/03/08 06:07:12;;;;;;;;;;;;;;;-1.38;100.00;102190.81;4976900;28;19918;-75
2022/03/08 06:09:37;;;;;;;;;;;;;;;-1.33;100.00;102180.53;4977398;28;19926;-74
2022/03/08 06:12:03;;;;;;;;;;;;;;;-1.22;100.00;102179.97;4959387;28;19918;-73
2022/03/08 06:14:28;;;;;;;;;;;;;;;-1.22;100.00;102179.97;4977273;28;19988;-74
2022/03/08 06:16:53;;;;;;;;;;;;;;;-1.26;100.00;102178.09;4976674;28;19918;-74
2022/03/08 06:19:19;;;;;;;;;;;;;;;-1.19;100.00;102182.66;4976574;28;19968;-73
2022/03/08 06:21:44;;;;;;;;;;;;;;;-1.19;100.00;102185.25;4959268;28;19918;-74
2022/03/08 06:24:11;;;;;;;;;;;;;;;-1.21;100.00;102191.28;4976195;28;19925;-74
2022/03/08 06:26:38;;;;;;;;;;;;;;;-1.08;100.00;102188.13;4975724;28;20147;-73
2022/03/08 06:29:04;;;;;;;;;;;;;;;-1.19;100.00;102185.25;4976216;28;19918;-75
2022/03/08 06:31:29;;;;;;;;;;;;;;;-1.15;100.00;102194.03;4976211;28;19919;-72
2022/03/08 06:33:54;;;;;;;;;;;;;;;-1.15;100.00;102197.50;4976482;28;20004;-74
2022/03/08 06:36:20;;;;;;;;;;;;;;;-1.01;100.00;102190.94;4975566;28;20005;-73
2022/03/08 06:38:45;;;;;;;;;;;;;;;-1.04;100.00;102206.50;4976520;28;19968;-72
2022/03/08 06:41:10;;;;;;;;;;;;;;;-0.95;100.00;102201.53;4975602;28;19968;-72
2022/03/08 06:43:36;;;;;;;;;;;;;;;-0.95;100.00;102198.94;4967092;28;19933;-73
2022/03/08 06:46:01;;;;;;;;;;;;;;;-0.90;100.00;102206.88;4975971;28;20021;-72
2022/03/08 06:48:26;;;;;;;;;;;;;;;-0.79;100.00;102208.88;4972818;28;20017;-74
2022/03/08 06:50:51;;;;;;;;;;;;;;;-0.79;100.00;102205.41;4964392;28;20283;-72
2022/03/08 06:53:27;;;;;;;;;;;;;;;-0.78;100.00;102210.66;4966633;28;19925;-73
2022/03/08 06:55:52;;;;;;;;;;;;;;;-0.67;100.00;102198.75;4975605;28;19929;-73
2022/03/08 06:58:48;;;;;;;;;;;;;;;-0.61;100.00;102204.13;4975475;28;19918;-72
2022/03/08 07:01:15;;;;;;;;;;;;;;;-0.56;100.00;102196.41;4975963;28;19918;-74
2022/03/08 07:03:40;;;;;;;;;;;;;;;-0.51;100.00;102200.91;4969839;28;20356;-73
2022/03/08 07:06:05;;;;;;;;;;;;;;;-0.46;100.00;102194.03;4975073;28;19929;-72
2022/03/08 07:08:30;;;;;;;;;;;;;;;-0.42;100.00;102195.88;4975430;28;20395;-72
2022/03/08 07:10:56;;;;;;;;;;;;;;;-0.38;100.00;102196.84;4939130;29;19981;-72
2022/03/08 07:13:22;;;;;;;;;;;;;;;-0.27;100.00;102201.44;4966731;28;20005;-73
2022/03/08 07:15:47;;;;;;;;;;;;;;;-0.20;100.00;102198.13;4944236;28;19919;-72
2022/03/08 07:18:12;;;;;;;;;;;;;;;-0.17;100.00;102197.31;4943529;29;19919;-72
2022/03/08 07:20:38;;;;;;;;;;;;;;;-0.10;100.00;102189.69;4954840;29;20386;-73
2022/03/08 07:23:04;;;;;;;;;;;;;;;0.03;100.00;102194.28;4956216;29;19918;-73
2022/03/08 07:25:29;;;;;;;;;;;;;;;0.10;100.00;102191.78;4956382;29;19942;-73
2022/03/08 07:27:55;;;;;;;;;;;;;;;0.21;100.00;102195.50;4956174;28;20329;-73
2022/03/08 07:30:20;;;;;;;;;;;;;;;0.23;100.00;102184.28;4956053;29;19918;-70
2022/03/08 07:32:45;;;;;;;;;;;;;;;0.33;100.00;102177.50;4955639;28;19929;-70
2022/03/08 07:35:11;;;;;;;;;;;;;;;0.42;100.00;102185.50;4956022;29;19965;-71
2022/03/08 07:37:37;;;;;;;;;;;;;;;0.44;100.00;102186.44;4956699;28;20272;-71
2022/03/08 07:40:04;;;;;;;;;;;;;;;0.50;100.00;102186.53;4974160;28;19926;-72
2022/03/08 07:42:30;;;;;;;;;;;;;;;0.54;100.00;102178.78;4975002;28;19922;-71
2022/03/08 07:44:55;;;;;;;;;;;;;;;0.63;100.00;102184.19;4974718;28;19922;-75
2022/03/08 07:47:20;;;;;;;;;;;;;;;0.80;100.00;102184.50;4957825;28;19922;-71
2022/03/08 07:49:46;;;;;;;;;;;;;;;0.88;100.00;102182.91;4953766;28;20299;-72
2022/03/08 07:52:12;;;;;;;;;;;;;;;0.84;100.00;102188.94;4939894;29;19918;-70
2022/03/08 07:54:37;;;;;;;;;;;;;;;0.96;100.00;102187.41;4965936;28;19929;-71
2022/03/08 07:57:02;;;;;;;;;;;;;;;1.02;100.00;102184.03;4971916;28;20013;-73
2022/03/08 07:59:29;;;;;;;;;;;;;;;1.05;100.00;102198.06;4966957;28;19918;-71
2022/03/08 08:01:54;;;;;;;;;;;;;;;1.11;100.00;102195.53;4974978;28;19918;-70
2022/03/08 08:04:19;;;;;;;;;;;;;;;1.21;100.00;102196.56;4974813;28;19918;-70
2022/03/08 08:06:45;;;;;;;;;;;;;;;1.22;100.00;102198.31;4941504;28;19926;-71
2022/03/08 08:09:12;;;;;;;;;;;;;;;1.38;100.00;102205.56;4974692;28;19961;-71
2022/03/08 08:14:50;;;;;;;;;;;;;;;1.50;100.00;102208.38;4974734;28;20267;-71
2022/03/08 08:17:17;;;;;;;;;;;;;;;1.53;100.00;102211.03;4976539;28;19919;-72
2022/03/08 08:19:43;;;;;;;;;;;;;;;1.70;100.00;102206.97;4978743;28;20332;-71
2022/03/08 08:22:08;;;;;;;;;;;;;;;1.71;100.00;102208.72;4978469;28;19922;-70
2022/03/08 08:24:33;;;;;;;;;;;;;;;1.69;100.00;102210.44;4978484;28;19928;-71
2022/03/08 08:26:58;;;;;;;;;;;;;;;1.68;100.00;102213.91;4942183;29;19933;-72
2022/03/08 08:29:24;;;;;;;;;;;;;;;1.79;100.00;102207.09;4943096;28;19968;-73
2022/03/08 08:31:49;;;;;;;;;;;;;;;1.92;100.00;102213.38;4978059;28;19918;-71
2022/03/08 08:34:14;;;;;;;;;;;;;;;1.92;100.00;102209.03;4978502;28;19925;-72
2022/03/08 08:36:39;;;;;;;;;;;;;;;1.99;100.00;102209.97;4978049;28;19919;-72
2022/03/08 08:39:04;;;;;;;;;;;;;;;2.06;100.00;102209.22;4978276;28;19925;-71
2022/03/08 08:41:30;;;;;;;;;;;;;;;2.23;100.00;102208.59;4960503;28;20302;-72
2022/03/08 08:43:55;;;;;;;;;;;;;;;2.19;100.00;102209.38;4960774;28;19922;-72
2022/03/08 08:46:20;;;;;;;;;;;;;;;2.34;100.00;102204.34;4958670;29;20005;-71
2022/03/08 08:48:45;;;;;;;;;;;;;;;2.38;100.00;102203.53;4958511;29;19944;-73
2022/03/08 08:51:11;;;;;;;;;;;;;;;2.65;100.00;102197.69;4958645;29;20292;-71
2022/03/08 08:53:36;;;;;;;;;;;;;;;2.65;100.00;102195.97;4959157;28;19922;-72
2022/03/08 08:56:01;;;;;;;;;;;;;;;2.83;100.00;102185.69;4977791;28;19919;-72
2022/03/08 08:58:26;;;;;;;;;;;;;;;2.94;100.00;102184.06;4977599;28;20015;-72
2022/03/08 09:00:51;;;;;;;;;;;;;;;3.10;100.00;102177.19;4977771;28;19918;-73
2022/03/08 09:03:16;;;;;;;;;;;;;;;3.06;100.00;102178.91;4977532;28;19953;-74
2022/03/08 09:05:43;;;;;;;;;;;;;;;3.16;100.00;102174.63;4977524;28;19924;-72
2022/03/08 09:08:09;;;;;;;;;;;;;;;3.13;100.00;102170.22;4977645;28;20401;-73
2022/03/08 09:10:34;;;;;;;;;;;;;;;3.28;100.00;102168.59;4977614;28;20012;-71
2022/03/08 09:12:59;;;;;;;;;;;;;;;3.21;100.00;102167.66;4977276;28;19918;-71
2022/03/08 09:15:24;;;;;;;;;;;;;;;3.26;100.00;102159.81;4977261;28;19983;-72
2022/03/08 09:17:50;;;;;;;;;;;;;;;3.61;100.00;102168.84;4977211;28;19961;-73
2022/03/08 09:20:15;;;;;;;;;;;;;;;3.51;100.00;102165.28;4977276;28;20334;-78
2022/03/08 09:23:12;;;;;;;;;;;;;;;3.49;100.00;102169.63;4976406;28;19925;-72
2022/03/08 09:25:37;;;;;;;;;;;;;;;3.51;100.00;102161.75;4958535;28;19918;-73
2022/03/08 09:28:05;;;;;;;;;;;;;;;3.55;100.00;102166.16;4977110;28;20259;-74
2022/03/08 09:33:33;;;;;;;;;;;;;;;3.68;100.00;102171.50;4958515;28;19941;-74
2022/03/08 09:35:58;;;;;;;;;;;;;;;3.81;100.00;102175.09;4976990;28;20376;-74
2022/03/08 09:38:23;;;;;;;;;;;;;;;3.89;100.00;102169.00;4960110;28;19921;-75
2022/03/08 09:40:51;;;;;;;;;;;;;;;3.94;100.00;102174.31;4976870;28;19929;-74
2022/03/08 09:43:16;;;;;;;;;;;;;;;3.96;100.00;102156.78;4959800;28;19922;-74
2022/03/08 09:45:41;;;;;;;;;;;;;;;3.96;100.00;102160.28;4976713;28;20461;-75
2022/03/08 09:48:07;;;;;;;;;;;;;;;4.13;100.00;102161.25;4973674;28;19922;-75
2022/03/08 09:50:32;;;;;;;;;;;;;;;4.12;100.00;102154.25;4970486;28;20395;-74
2022/03/08 09:52:58;;;;;;;;;;;;;;;4.29;100.00;102155.19;4972288;28;19932;-75
2022/03/08 09:55:25;;;;;;;;;;;;;;;4.45;100.00;102150.84;4975567;28;19933;-75
2022/03/08 09:57:50;;;;;;;;;;;;;;;4.57;100.00;102154.38;4975483;28;19941;-75
2022/03/08 10:00:16;;;;;;;;;;;;;;;4.65;100.00;102154.41;4975977;28;20295;-75
2022/03/08 10:03:07;;;;;;;;;;;;;;;4.60;100.00;102137.75;4943742;29;19923;-75
2022/03/08 10:05:43;;;;;;;;;;;;;;;4.76;100.00;102147.41;4966966;28;19925;-73
2022/03/08 10:08:13;;;;;;;;;;;;;;;4.77;100.00;102136.03;4950329;28;19980;-73
2022/03/08 10:10:53;;;;;;;;;;;;;;;4.94;100.00;102139.53;4978154;28;19922;-72
2022/03/08 10:13:20;;;;;;;;;;;;;;;5.07;100.00;102141.31;4958143;28;19933;-72
2022/03/08 10:15:46;;;;;;;;;;;;;;;5.04;100.00;102130.78;4964615;28;19953;-73
2022/03/08 10:18:11;;;;;;;;;;;;;;;5.06;100.00;102130.78;4982963;28;19926;-73
2022/03/08 10:20:36;;;;;;;;;;;;;;;5.28;100.00;102130.75;4984966;28;19918;-74
2022/03/08 10:23:10;;;;;;;;;;;;;;;5.38;100.00;102129.88;4984073;28;19977;-74
2022/03/08 10:25:35;;;;;;;;;;;;;;;5.44;100.00;102123.72;4983898;28;19922;-73
2022/03/08 10:28:03;;;;;;;;;;;;;;;5.45;100.00;102126.34;4983517;28;19925;-74
2022/03/08 10:30:45;;;;;;;;;;;;;;;5.44;100.00;102129.88;4981491;28;19918;-76
2022/03/08 10:33:11;;;;;;;;;;;;;;;5.61;100.00;102128.06;4981072;28;19918;-71
2022/03/08 10:35:40;;;;;;;;;;;;;;;5.71;100.00;102127.19;4961954;28;20272;-71
2022/03/08 10:38:14;;;;;;;;;;;;;;;5.89;100.00;102121.03;4976661;28;19919;-71
2022/03/08 10:40:40;;;;;;;;;;;;;;;5.97;100.00;102111.34;4975850;28;19926;-71
2022/03/08 10:43:06;;;;;;;;;;;;;;;6.06;100.00;102103.38;4958617;28;20338;-71
2022/03/08 10:45:32;;;;;;;;;;;;;;;6.36;100.00;102113.78;4975458;28;19922;-71
2022/03/08 10:47:57;;;;;;;;;;;;;;;6.38;100.00;102112.03;4976015;28;19925;-72
2022/03/08 10:50:24;;;;;;;;;;;;;;;6.51;100.00;102102.28;4975647;28;19918;-71
2022/03/08 10:52:51;;;;;;;;;;;;;;;6.73;100.00;102093.31;4975892;28;20001;-71
2022/03/08 10:55:19;;;;;;;;;;;;;;;6.94;100.00;102095.78;4976821;28;19922;-72
2022/03/08 10:57:49;;;;;;;;;;;;;;;7.18;100.00;102091.19;4959270;28;19918;-71
2022/03/08 11:00:15;;;;;;;;;;;;;;;7.46;100.00;102091.78;4974962;28;19929;-71
2022/03/08 11:02:46;;;;;;;;;;;;;;;7.94;100.00;102083.31;4975278;28;19918;-71
2022/03/08 11:05:11;;;;;;;;;;;;;;;9.20;100.00;102086.72;4974754;28;19964;-72
2022/03/08 11:07:37;;;;;;;;;;;;;;;10.76;100.00;102087.09;4975251;28;19965;-72
2022/03/08 11:10:03;;;;;;;;;;;;;;;12.67;100.00;102083.56;4975166;28;19918;-72
2022/03/08 11:12:29;;;;;;;;;;;;;;;12.97;100.00;102086.09;4975187;28;19929;-72
2022/03/08 11:14:54;;;;;;;;;;;;;;;13.69;100.00;102083.59;4975014;28;19918;-72
2022/03/08 11:17:20;;;;;;;;;;;;;;;13.96;100.00;102084.41;4975022;28;20005;-72
2022/03/08 11:19:46;;;;;;;;;;;;;;;14.16;100.00;102076.53;4975127;28;19961;-72
2022/03/08 11:22:11;;;;;;;;;;;;;;;13.88;100.00;102081.16;4975135;28;19972;-72
2022/03/08 11:24:37;;;;;;;;;;;;;;;14.05;100.00;102086.75;4974988;28;19922;-72
2022/03/08 11:27:02;;;;;;;;;;;;;;;12.99;100.00;102081.59;4971762;28;19968;-71
2022/03/08 11:29:29;;;;;;;;;;;;;;;14.76;100.00;102074.16;4961074;28;20339;-78
2022/03/08 11:31:55;;;;;;;;;;;;;;;15.00;100.00;102081.16;4938863;29;19919;-74
2022/03/08 11:34:31;;;;;;;;;;;;;;;14.53;100.00;102070.66;4956239;28;19918;-73
2022/03/08 11:37:01;;;;;;;;;;;;;;;14.58;100.00;102068.66;4963805;28;19929;-75
2022/03/08 11:39:30;;;;;;;;;;;;;;;15.92;100.00;102057.53;4957741;28;19942;-72
2022/03/08 11:42:16;;;;;;;;;;;;;;;16.05;100.00;102062.28;4957604;28;20291;-72
2022/03/08 11:44:41;;;;;;;;;;;;;;;16.71;100.00;102061.81;4974591;28;19929;-70
2022/03/08 11:47:10;;;;;;;;;;;;;;;16.66;96.81;102057.59;4974838;28;19918;-71
2022/03/08 11:49:52;;;;;;;;;;;;;;;14.56;100.00;102062.53;4975675;28;19937;-71
2022/03/08 11:52:17;;;;;;;;;;;;;;;16.32;100.00;102047.59;4973942;28;19924;-70
2022/03/08 11:54:51;;;;;;;;;;;;;;;17.81;91.43;102056.13;4975023;28;19918;-71
2022/03/08 11:57:36;;;;;;;;;;;;;;;18.17;90.35;102051.44;4974757;28;19953;-71
2022/03/08 12:00:18;;;;;;;;;;;;;;;19.60;76.50;102055.69;4974942;28;19918;-71
2022/03/08 12:02:46;;;;;;;;;;;;;;;18.15;75.06;102049.81;4957453;28;20388;-71
2022/03/08 12:05:30;;;;;;;;;;;;;;;18.41;76.66;102051.06;4974775;28;19925;-71
2022/03/08 12:07:56;;;;;;;;;;;;;;;18.83;67.50;102051.34;4974780;28;19922;-71
2022/03/08 12:10:25;;;;;;;;;;;;;;;16.55;76.92;102049.19;4974730;28;19918;-71
2022/03/08 12:12:52;;;;;;;;;;;;;;;14.53;91.00;102065.31;4974558;28;19918;-70
2022/03/08 12:15:17;;;;;;;;;;;;;;;12.54;100.00;102040.41;4974459;28;19918;-70
2022/03/08 12:18:02;;;;;;;;;;;;;;;15.90;100.00;102043.38;4974448;28;19953;-71
2022/03/08 12:20:28;;;;;;;;;;;;;;;16.75;79.04;102046.41;4974767;28;19989;-71
2022/03/08 12:23:07;;;;;;;;;;;;;;;15.87;85.38;102044.34;4956986;28;19918;-71
2022/03/08 12:25:32;;;;;;;;;;;;;;;17.33;87.90;102034.50;4975058;28;20379;-70
2022/03/08 12:27:58;;;;;;;;;;;;;;;19.62;65.74;102038.44;4974523;28;20020;-71
2022/03/08 12:30:40;;;;;;;;;;;;;;;19.29;62.35;102042.31;4975030;28;20257;-71
2022/03/08 12:33:05;;;;;;;;;;;;;;;19.25;70.84;102032.66;4968238;28;19928;-71
2022/03/08 12:35:31;;;;;;;;;;;;;;;20.69;62.20;102026.16;4958543;28;19923;-71
2022/03/08 12:38:01;;;;;;;;;;;;;;;20.81;61.02;102025.38;4965815;28;20323;-71
2022/03/08 12:40:26;;;;;;;;;;;;;;;21.92;57.05;102019.44;4968457;28;20013;-71
2022/03/08 12:42:57;;;;;;;;;;;;;;;22.17;56.72;102021.28;4967214;28;20434;-71
2022/03/08 12:45:28;;;;;;;;;;;;;;;23.16;54.40;102019.19;4961470;28;19929;-71
2022/03/08 12:48:23;;;;;;;;;;;;;;;23.65;49.83;102022.56;4963845;28;19927;-71
2022/03/08 12:50:49;;;;;;;;;;;;;;;21.06;52.00;102012.00;4949230;28;19919;-71